Time;durP1;ratioP1;P1;durP2;ratioP2;P2;SDS_P1;SDS_P2;PMS_P1;PMS_P2;Temp;Humidity;BMP_temperature;BMP_pressure;BME280_temperature;BME280_humidity;BME280_pressure;Samples;Min_cycle;Max_cycle;Signal;HPM_P1;HPM_P2
2022/06/26 00:03:36;;;;;;;1.40;0.38;;;;;;;22.98;46.17;101172.34;16146059;19;129317;-55
2022/06/26 00:08:57;;;;;;;0.68;0.30;;;;;;;22.96;46.19;101175.41;16146471;19;129271;-54
2022/06/26 00:14:19;;;;;;;2.45;0.40;;;;;;;22.97;46.26;101187.41;16145617;19;129382;-55
2022/06/26 00:19:42;;;;;;;0.22;0.20;;;;;;;22.95;46.38;101184.06;16149372;19;129085;-55
2022/06/26 00:25:05;;;;;;;0.73;0.10;;;;;;;22.95;46.17;101204.41;16148345;19;129887;-55
2022/06/26 00:30:27;;;;;;;1.67;0.32;;;;;;;22.95;46.26;101203.59;16145694;19;129563;-55
2022/06/26 00:35:49;;;;;;;0.82;0.40;;;;;;;22.93;46.24;101203.84;16146663;19;129914;-54
2022/06/26 00:41:10;;;;;;;1.02;0.38;;;;;;;22.92;46.07;101216.13;16146931;19;129422;-50
2022/06/26 00:46:32;;;;;;;0.55;0.30;;;;;;;22.92;46.25;101216.13;16146331;19;129888;-52
2022/06/26 00:51:55;;;;;;;0.40;0.20;;;;;;;22.91;46.09;101217.22;16141173;19;129498;-53
2022/06/26 00:57:19;;;;;;;0.20;0.15;;;;;;;22.91;46.38;101220.00;16145602;19;130162;-53
2022/06/26 01:02:41;;;;;;;0.20;0.20;;;;;;;22.91;46.13;101221.97;16144477;19;129616;-53
2022/06/26 01:08:03;;;;;;;0.32;0.13;;;;;;;22.89;45.91;101213.84;16145500;19;129625;-52
2022/06/26 01:13:25;;;;;;;0.55;0.20;;;;;;;22.88;46.20;101221.34;16144393;19;130793;-51
2022/06/26 01:18:52;;;;;;;0.20;0.20;;;;;;;22.88;46.06;101220.53;16144619;19;129780;-53
2022/06/26 01:24:14;;;;;;;0.38;0.10;;;;;;;22.87;46.11;101216.06;16144119;19;129824;-53
2022/06/26 01:29:36;;;;;;;0.68;0.20;;;;;;;22.86;46.06;101217.16;16140713;19;129736;-49
2022/06/26 01:34:57;;;;;;;0.45;0.30;;;;;;;22.85;46.17;101205.16;16142878;19;129332;-52
2022/06/26 01:40:20;;;;;;;0.20;0.20;;;;;;;22.86;46.19;101206.00;16140711;19;129588;-54
2022/06/26 01:45:47;;;;;;;1.05;0.20;;;;;;;22.86;46.08;101203.22;16142890;19;129206;-53
2022/06/26 01:51:09;;;;;;;0.40;0.30;;;;;;;22.84;46.08;101222.16;16138353;19;128990;-51
2022/06/26 01:56:31;;;;;;;0.43;0.10;;;;;;;22.84;46.14;101216.59;16142124;19;129896;-52
2022/06/26 02:01:53;;;;;;;0.22;0.22;;;;;;;22.83;46.14;101220.47;16140093;19;129013;-52
2022/06/26 02:07:15;;;;;;;0.20;0.20;;;;;;;22.82;46.17;101210.44;16142503;19;129428;-53
2022/06/26 02:18:17;;;;;;;0.47;0.15;;;;;;;22.82;46.38;101222.44;16139917;19;130855;-52
2022/06/26 02:23:40;;;;;;;1.05;0.20;;;;;;;22.80;46.28;101235.81;16140494;19;129015;-46
2022/06/26 02:29:01;;;;;;;0.35;0.20;;;;;;;22.80;46.00;101237.75;16138546;19;129824;-52
2022/06/26 02:34:23;;;;;;;0.38;0.20;;;;;;;22.79;46.16;101227.69;16139048;19;129886;-50
2022/06/26 02:39:45;;;;;;;0.68;0.20;;;;;;;22.78;46.10;101229.66;16133022;19;129228;-52
2022/06/26 02:45:07;;;;;;;0.10;0.10;;;;;;;22.78;46.03;101223.22;16138429;19;129431;-51
2022/06/26 02:50:29;;;;;;;0.22;0.22;;;;;;;22.77;46.11;101224.38;16132821;19;129202;-50
2022/06/26 02:55:51;;;;;;;0.38;0.20;;;;;;;22.76;46.15;101225.47;16138130;19;129036;-50
2022/06/26 03:01:13;;;;;;;0.55;0.20;;;;;;;22.76;46.15;101233.84;16135236;19;130182;-50
2022/06/26 03:06:35;;;;;;;0.20;0.10;;;;;;;22.74;46.02;101236.88;16139633;19;129085;-54
2022/06/26 03:11:57;;;;;;;0.30;0.28;;;;;;;22.74;46.20;101257.25;16145695;19;129462;-52
2022/06/26 03:17:19;;;;;;;1.00;0.22;;;;;;;22.72;45.84;101253.88;16152587;19;131158;-46
2022/06/26 03:22:41;;;;;;;0.60;0.43;;;;;;;22.72;46.21;101253.88;16151929;19;129577;-51
2022/06/26 03:28:03;;;;;;;0.68;0.20;;;;;;;22.71;46.17;101246.63;16148784;19;130513;-52
2022/06/26 03:33:25;;;;;;;0.20;0.20;;;;;;;22.71;46.12;101240.19;16150621;19;129846;-51
2022/06/26 03:38:47;;;;;;;0.45;0.25;;;;;;;22.71;45.74;101257.78;16146602;19;130391;-49
2022/06/26 03:44:08;;;;;;;0.50;0.30;;;;;;;22.70;46.00;101270.03;16150846;19;130449;-51
2022/06/26 03:49:30;;;;;;;0.47;0.20;;;;;;;22.69;46.10;101268.34;16147430;19;129432;-50
2022/06/26 03:54:52;;;;;;;0.20;0.15;;;;;;;22.69;45.88;101259.16;16150938;19;130260;-50
2022/06/26 04:00:14;;;;;;;0.22;0.20;;;;;;;22.69;46.07;101264.75;16147848;19;129337;-47
2022/06/26 04:05:39;;;;;;;0.57;0.30;;;;;;;22.68;45.92;101286.19;16145958;19;129473;-49
2022/06/26 04:11:01;;;;;;;0.20;0.20;;;;;;;22.66;46.20;101282.81;16144436;19;129565;-48
2022/06/26 04:16:23;;;;;;;0.30;0.30;;;;;;;22.66;45.96;101288.41;16148221;19;128869;-52
2022/06/26 04:21:45;;;;;;;0.30;0.30;;;;;;;22.67;45.91;101294.84;16145556;19;130313;-52
2022/06/26 04:27:07;;;;;;;0.95;0.30;;;;;;;22.65;45.78;101289.50;16147266;19;129843;-49
2022/06/26 04:32:28;;;;;;;0.22;0.20;;;;;;;22.64;45.89;101301.78;16142910;19;129292;-51
2022/06/26 04:37:50;;;;;;;0.20;0.20;;;;;;;22.64;45.99;101304.59;16141197;19;129002;-50
2022/06/26 04:43:12;;;;;;;0.70;0.20;;;;;;;22.63;45.86;101308.47;16145187;19;129917;-51
2022/06/26 04:48:34;;;;;;;0.20;0.20;;;;;;;22.63;45.94;101319.63;16145583;19;129466;-51
2022/06/26 04:53:56;;;;;;;0.30;0.30;;;;;;;22.64;46.06;101306.50;16144246;19;129565;-53
2022/06/26 04:59:18;;;;;;;0.20;0.20;;;;;;;22.62;46.08;101309.56;16143256;19;130705;-49
2022/06/26 05:04:40;;;;;;;0.57;0.25;;;;;;;22.63;46.26;101322.41;16140385;19;129491;-52
2022/06/26 05:10:03;;;;;;;0.30;0.17;;;;;;;22.61;46.00;101321.84;16142507;19;129069;-47
2022/06/26 05:15:24;;;;;;;0.17;0.17;;;;;;;22.61;45.94;101330.19;16142917;19;129278;-47
2022/06/26 05:20:46;;;;;;;0.30;0.20;;;;;;;22.61;46.14;101333.00;16144062;19;129795;-50
2022/06/26 05:26:08;;;;;;;0.35;0.30;;;;;;;22.61;46.00;101335.78;16137949;19;129814;-49
2022/06/26 05:31:30;;;;;;;0.85;0.40;;;;;;;22.59;45.99;101361.13;16137090;19;128954;-49
2022/06/26 05:36:52;;;;;;;0.40;0.30;;;;;;;22.58;45.96;101359.47;16139038;19;129432;-50
2022/06/26 05:42:14;;;;;;;1.40;0.32;;;;;;;22.59;46.02;101352.75;16142087;19;129988;-50
2022/06/26 05:47:36;;;;;;;0.98;0.32;;;;;;;22.58;46.02;101347.44;16140672;19;129534;-53
2022/06/26 05:52:58;;;;;;;0.30;0.30;;;;;;;22.58;46.22;101356.69;16135991;19;129589;-53
2022/06/26 05:58:20;;;;;;;0.60;0.40;;;;;;;22.58;45.65;101353.88;16140451;19;129043;-47
2022/06/26 06:03:42;;;;;;;1.45;0.40;;;;;;;22.57;45.95;101380.09;16135633;19;128964;-53
2022/06/26 06:09:04;;;;;;;0.55;0.30;;;;;;;22.57;45.97;101380.09;16138548;19;130043;-53
2022/06/26 06:14:26;;;;;;;0.77;0.40;;;;;;;22.57;45.81;101394.03;16140274;19;129317;-49
2022/06/26 06:19:48;;;;;;;0.43;0.30;;;;;;;22.56;46.15;101399.84;16138795;19;129193;-51
2022/06/26 06:25:10;;;;;;;0.55;0.30;;;;;;;22.56;45.61;101419.38;16138471;19;129599;-52
2022/06/26 06:30:37;;;;;;;2.13;0.40;;;;;;;22.55;45.92;101437.19;16136138;19;129391;-53
2022/06/26 06:35:59;;;;;;;0.65;0.30;;;;;;;22.55;45.75;101448.34;16136945;19;128850;-52
2022/06/26 06:41:21;;;;;;;0.40;0.40;;;;;;;22.55;45.62;101453.94;16140088;19;130025;-50
2022/06/26 06:46:42;;;;;;;0.40;0.30;;;;;;;22.55;46.09;101448.34;16152774;19;130709;-53
2022/06/26 06:52:06;;;;;;;0.60;0.50;;;;;;;22.53;46.14;101445.84;16149121;19;131611;-50
2022/06/26 06:57:28;;;;;;;0.85;0.30;;;;;;;22.54;46.06;101457.81;16152380;19;128938;-52
2022/06/26 07:02:49;;;;;;;0.30;0.30;;;;;;;22.53;45.91;101456.97;16148436;19;129227;-47
2022/06/26 07:08:11;;;;;;;1.27;0.40;;;;;;;22.53;46.08;101461.69;16149707;19;128955;-51
2022/06/26 07:13:33;;;;;;;0.77;0.40;;;;;;;22.53;45.64;101467.28;16146233;19;129687;-51
2022/06/26 07:18:55;;;;;;;0.55;0.40;;;;;;;22.53;45.80;101482.09;16149970;19;130731;-50
2022/06/26 07:24:17;;;;;;;0.90;0.40;;;;;;;22.52;46.00;101485.13;16148457;19;129700;-52
2022/06/26 07:29:39;;;;;;;0.40;0.30;;;;;;;22.53;45.86;101492.38;16148899;19;129235;-53
2022/06/26 07:35:07;;;;;;;0.40;0.40;;;;;;;22.54;45.98;101492.13;16147472;19;129675;-51
2022/06/26 07:40:29;;;;;;;1.20;0.50;;;;;;;22.57;45.62;101490.75;16150226;19;130902;-53
2022/06/26 07:45:51;;;;;;;1.17;0.60;;;;;;;22.59;45.57;101494.13;16149779;19;131026;-53
2022/06/26 07:51:13;;;;;;;0.90;0.50;;;;;;;22.60;45.55;101501.41;16146668;19;128913;-52
2022/06/26 07:56:35;;;;;;;2.70;0.60;;;;;;;22.62;45.63;101506.72;16147716;19;129010;-49
2022/06/26 08:01:57;;;;;;;3.35;1.10;;;;;;;22.59;45.44;101503.34;16142814;19;129432;-52
2022/06/26 08:07:19;;;;;;;2.00;0.90;;;;;;;22.61;45.10;101499.44;16146541;19;129223;-53
2022/06/26 08:12:41;;;;;;;2.90;1.00;;;;;;;22.63;45.26;101478.59;16140674;19;129309;-53
2022/06/26 08:18:03;;;;;;;3.13;1.10;;;;;;;22.66;45.20;101485.56;16145217;19;130005;-53
2022/06/26 08:23:25;;;;;;;2.90;1.33;;;;;;;22.65;45.25;101509.81;16147390;19;132721;-52
2022/06/26 08:28:47;;;;;;;3.30;1.25;;;;;;;22.68;45.15;101511.25;16145950;19;129322;-49
2022/06/26 08:34:09;;;;;;;3.42;1.40;;;;;;;22.70;44.80;101492.34;16138354;19;129172;-50
2022/06/26 08:39:35;;;;;;;2.55;1.50;;;;;;;22.70;44.85;101507.09;16135970;19;128939;-50
2022/06/26 08:44:58;;;;;;;4.93;1.50;;;;;;;22.70;45.08;101501.53;16141454;19;128945;-51
2022/06/26 08:50:21;;;;;;;2.95;1.08;;;;;;;22.70;45.03;101501.53;16141707;19;130040;-53
2022/06/26 08:55:43;;;;;;;1.63;1.00;;;;;;;22.71;44.67;101508.78;16143685;19;130176;-50
2022/06/26 09:01:07;;;;;;;1.42;1.02;;;;;;;22.72;44.74;101515.19;16139791;19;132696;-50
2022/06/26 09:06:29;;;;;;;2.17;0.95;;;;;;;22.73;44.83;101503.81;16144698;19;130000;-52
2022/06/26 09:12:01;;;;;;;3.83;1.30;;;;;;;22.73;45.11;101519.69;16140930;19;129308;-53
2022/06/26 09:17:23;;;;;;;1.50;1.17;;;;;;;22.74;45.06;101518.56;16140761;19;129270;-48
2022/06/26 09:22:56;;;;;;;2.58;1.13;;;;;;;22.77;45.07;101528.38;16142722;19;128983;-52
2022/06/26 09:28:21;;;;;;;2.88;1.15;;;;;;;22.76;44.82;101521.13;16139627;19;130171;-52
2022/06/26 09:33:43;;;;;;;3.83;1.63;;;;;;;22.76;44.53;101521.13;16135605;19;129785;-52
2022/06/26 09:39:06;;;;;;;3.95;0.85;;;;;;;22.78;44.74;101530.06;16135730;19;129717;-52
2022/06/26 09:44:28;;;;;;;2.50;1.23;;;;;;;22.80;44.75;101530.63;16139567;19;129319;-51
2022/06/26 09:49:53;;;;;;;3.38;1.50;;;;;;;22.83;44.69;101535.72;16138360;19;129278;-52
2022/06/26 09:55:15;;;;;;;2.87;1.53;;;;;;;22.85;44.88;101539.91;16137939;19;129535;-50
2022/06/26 10:00:37;;;;;;;5.30;1.63;;;;;;;22.89;44.58;101527.13;16135062;19;129374;-52
2022/06/26 10:11:42;;;;;;;3.85;1.50;;;;;;;22.92;44.57;101545.31;16136500;19;128974;-52
2022/06/26 10:17:21;;;;;;;3.90;1.45;;;;;;;22.94;44.38;101545.91;16146686;19;129424;-51
2022/06/26 10:22:45;;;;;;;2.25;1.45;;;;;;;22.94;44.09;101540.34;16154645;19;128997;-50
2022/06/26 10:28:17;;;;;;;7.32;1.30;;;;;;;22.96;44.22;101532.53;16152935;19;129705;-50
2022/06/26 10:33:46;;;;;;;2.97;1.40;;;;;;;22.97;44.23;101542.59;16148142;19;129484;-51
2022/06/26 10:39:08;;;;;;;1.95;1.25;;;;;;;22.98;44.54;101546.22;16149268;19;129225;-53
2022/06/26 10:44:53;;;;;;;4.60;1.40;;;;;;;23.00;44.24;101535.66;16151787;19;130741;-54
2022/06/26 10:50:31;;;;;;;4.05;1.40;;;;;;;23.02;44.37;101537.06;16152765;19;129505;-50
2022/06/26 10:56:02;;;;;;;4.10;1.33;;;;;;;23.03;44.42;101522.00;16151685;19;129869;-50
2022/06/26 11:01:25;;;;;;;3.55;1.50;;;;;;;23.06;44.25;101526.25;16151514;19;129918;-52
2022/06/26 11:06:49;;;;;;;6.10;1.52;;;;;;;23.08;43.99;101535.19;16152747;19;129880;-51
2022/06/26 11:12:13;;;;;;;8.52;1.95;;;;;;;23.09;44.10;101524.88;16147211;19;131125;-51
2022/06/26 11:17:35;;;;;;;2.67;1.30;;;;;;;23.10;43.79;101507.84;16149721;19;130083;-53
2022/06/26 11:22:58;;;;;;;2.92;1.42;;;;;;;23.13;44.17;101507.34;16150360;19;129712;-51
2022/06/26 11:28:25;;;;;;;5.35;1.50;;;;;;;23.15;44.15;101507.91;16146962;19;129328;-54
2022/06/26 11:33:47;;;;;;;6.70;1.40;;;;;;;23.16;43.99;101514.34;16143232;19;128921;-54
2022/06/26 11:39:09;;;;;;;3.88;1.65;;;;;;;23.15;44.15;101516.28;16143003;19;129912;-52
2022/06/26 11:44:31;;;;;;;3.35;1.33;;;;;;;23.18;43.63;101526.06;16147363;19;130440;-51
2022/06/26 11:49:52;;;;;;;3.05;1.35;;;;;;;23.19;43.93;101499.84;16147902;19;131753;-52
2022/06/26 11:55:14;;;;;;;2.80;1.10;;;;;;;23.18;43.62;101506.53;16142633;19;130205;-48
2022/06/26 12:00:37;;;;;;;5.35;1.25;;;;;;;23.17;44.09;101510.44;16145326;19;129189;-55
2022/06/26 12:05:59;;;;;;;5.72;1.33;;;;;;;23.15;43.82;101487.53;16146654;19;129341;-50
2022/06/26 12:11:21;;;;;;;3.08;1.23;;;;;;;23.16;43.75;101492.00;16144557;19;130064;-51
2022/06/26 12:16:47;;;;;;;4.60;1.10;;;;;;;23.17;44.05;101488.97;16146172;19;130856;-53
2022/06/26 12:22:09;;;;;;;2.55;1.27;;;;;;;23.18;43.76;101496.25;16145014;19;128815;-52
2022/06/26 12:27:42;;;;;;;4.57;1.10;;;;;;;23.22;43.58;101490.09;16144525;19;130243;-52
2022/06/26 12:33:05;;;;;;;7.22;1.45;;;;;;;23.20;43.55;101493.16;16139752;19;129047;-54
2022/06/26 12:38:28;;;;;;;3.17;1.10;;;;;;;23.20;43.46;101498.75;16139794;19;129630;-53
2022/06/26 12:43:52;;;;;;;2.53;0.95;;;;;;;23.20;43.58;101493.16;16144526;19;130699;-53
2022/06/26 12:49:18;;;;;;;1.90;1.10;;;;;;;23.21;43.33;101494.84;16141857;19;129839;-54
2022/06/26 12:54:40;;;;;;;2.40;1.35;;;;;;;23.23;43.45;101509.41;16138762;19;130111;-56
2022/06/26 13:00:07;;;;;;;2.03;0.95;;;;;;;23.24;43.36;101519.47;16140564;19;129452;-53
2022/06/26 13:05:28;;;;;;;3.58;1.17;;;;;;;23.25;43.91;101503.53;16141025;19;129003;-54
2022/06/26 13:10:50;;;;;;;5.25;1.20;;;;;;;23.24;43.39;101510.22;16142027;19;129388;-54
2022/06/26 13:16:12;;;;;;;3.28;1.08;;;;;;;23.23;43.57;101503.81;16143047;19;129614;-51
2022/06/26 13:21:35;;;;;;;6.35;1.15;;;;;;;23.21;43.48;101494.84;16142695;19;130425;-53
2022/06/26 13:26:56;;;;;;;3.55;0.93;;;;;;;23.19;43.46;101492.34;16144156;19;129154;-53
2022/06/26 13:32:18;;;;;;;4.30;1.00;;;;;;;23.19;43.54;101494.28;16141070;19;129566;-53
2022/06/26 13:37:42;;;;;;;5.07;1.45;;;;;;;23.19;43.49;101509.09;16137282;19;130696;-54
2022/06/26 13:43:04;;;;;;;8.73;1.42;;;;;;;23.19;43.26;101502.66;16141973;19;129520;-54
2022/06/26 13:48:29;;;;;;;5.95;1.33;;;;;;;23.18;43.40;101510.19;16141044;19;129691;-52
2022/06/26 13:53:50;;;;;;;6.20;1.23;;;;;;;23.20;43.33;101509.91;16135719;19;129472;-52
2022/06/26 13:59:12;;;;;;;5.70;1.30;;;;;;;23.19;43.31;101514.66;16141961;19;129233;-52
2022/06/26 14:04:34;;;;;;;7.13;1.02;;;;;;;23.17;43.69;101521.59;16133943;19;128796;-52
2022/06/26 14:09:56;;;;;;;4.95;1.25;;;;;;;23.17;43.51;101502.06;16141649;19;130152;-50
2022/06/26 14:15:18;;;;;;;5.03;1.17;;;;;;;23.14;43.59;101499.81;16135727;19;130723;-50
2022/06/26 14:20:40;;;;;;;4.18;1.13;;;;;;;23.12;43.39;101496.44;16135480;19;129299;-47
2022/06/26 14:26:03;;;;;;;3.45;1.27;;;;;;;23.13;43.44;101500.94;16137885;19;130266;-51
2022/06/26 14:31:25;;;;;;;5.53;0.98;;;;;;;23.11;43.24;101489.19;16131490;19;129780;-49
2022/06/26 14:37:05;;;;;;;3.10;1.10;;;;;;;23.13;43.33;101503.72;16131830;19;130386;-54
2022/06/26 14:42:27;;;;;;;8.23;1.15;;;;;;;23.12;43.43;101494.47;16137270;19;129635;-50
2022/06/26 14:47:49;;;;;;;5.65;1.17;;;;;;;23.12;43.56;101490.88;16137720;19;129416;-51
2022/06/26 14:53:15;;;;;;;5.65;1.10;;;;;;;23.11;43.10;101481.63;16133824;19;130040;-54
2022/06/26 14:58:37;;;;;;;5.95;1.30;;;;;;;23.11;43.11;101478.84;16137502;19;131903;-50
2022/06/26 15:04:00;;;;;;;2.70;1.08;;;;;;;23.10;43.51;101470.75;16141543;19;130663;-51
2022/06/26 15:09:22;;;;;;;3.05;1.08;;;;;;;23.10;43.32;101479.13;16146867;19;129245;-49
2022/06/26 15:14:44;;;;;;;5.60;1.38;;;;;;;23.09;43.67;101471.84;16147884;19;129600;-53
2022/06/26 15:20:06;;;;;;;4.72;1.17;;;;;;;23.09;43.45;101474.63;16150988;19;131092;-52
2022/06/26 15:25:28;;;;;;;5.20;1.23;;;;;;;23.08;43.74;101467.38;16150636;19;129239;-53
2022/06/26 15:30:50;;;;;;;1.95;0.98;;;;;;;23.08;43.49;101456.22;16149348;19;129892;-52
2022/06/26 15:36:12;;;;;;;2.35;1.00;;;;;;;23.10;43.43;101465.16;16145548;19;129459;-53
2022/06/26 15:41:34;;;;;;;3.92;1.08;;;;;;;23.10;43.59;101477.16;16149199;19;130850;-53
2022/06/26 15:46:56;;;;;;;2.67;0.90;;;;;;;23.11;43.57;101473.25;16143182;19;131293;-50
2022/06/26 15:52:18;;;;;;;3.72;1.10;;;;;;;23.12;43.69;101471.31;16144436;19;128987;-53
2022/06/26 15:57:40;;;;;;;3.90;1.05;;;;;;;23.10;43.18;101470.75;16146195;19;128934;-54
2022/06/26 16:03:02;;;;;;;2.72;0.88;;;;;;;23.09;43.06;101469.88;16143840;19;131920;-52
2022/06/26 16:08:27;;;;;;;6.57;0.98;;;;;;;23.08;43.28;101445.88;16144012;19;129002;-51
2022/06/26 16:13:49;;;;;;;3.55;1.20;;;;;;;23.07;43.25;101441.44;16139931;19;130044;-49
2022/06/26 16:19:11;;;;;;;3.20;0.90;;;;;;;23.07;43.25;101437.78;16143110;19;129515;-52
2022/06/26 16:30:13;;;;;;;2.88;0.70;;;;;;;23.04;43.57;101445.56;16144910;19;129896;-49
2022/06/26 16:35:35;;;;;;;5.45;1.02;;;;;;;23.04;43.27;101442.78;16140613;19;129063;-51
2022/06/26 16:40:57;;;;;;;2.97;1.10;;;;;;;23.04;43.84;101430.78;16145641;19;129523;-51
2022/06/26 16:46:19;;;;;;;4.32;1.23;;;;;;;23.01;43.61;101418.22;16143918;19;130363;-52
2022/06/26 16:51:41;;;;;;;2.72;1.35;;;;;;;23.02;44.03;101414.28;16144147;19;129273;-47
2022/06/26 16:57:05;;;;;;;4.03;2.13;;;;;;;23.04;43.43;101414.88;16139896;19;130744;-54
2022/06/26 17:02:27;;;;;;;3.88;1.52;;;;;;;23.05;43.73;101410.97;16141482;19;128821;-53
2022/06/26 17:07:49;;;;;;;2.53;1.80;;;;;;;23.05;43.55;101422.13;16143430;19;129489;-52
2022/06/26 17:13:11;;;;;;;7.35;2.22;;;;;;;23.05;43.56;101422.13;16140126;19;128930;-52
2022/06/26 17:18:34;;;;;;;10.48;4.72;;;;;;;23.07;43.88;101415.44;16143023;19;129206;-53
2022/06/26 17:23:55;;;;;;;12.93;7.72;;;;;;;23.10;43.80;101403.75;16139554;19;130466;-53
2022/06/26 17:29:20;;;;;;;12.57;8.15;;;;;;;23.11;44.13;101416.63;16133967;19;129080;-53
2022/06/26 17:34:42;;;;;;;13.37;7.80;;;;;;;23.13;44.24;101420.00;16126811;19;130525;-52
2022/06/26 17:40:06;;;;;;;21.80;7.82;;;;;;;23.17;44.42;101421.97;16143919;19;130392;-51
2022/06/26 17:45:28;;;;;;;15.53;7.17;;;;;;;23.18;44.48;101434.81;16132994;19;129667;-53
2022/06/26 17:50:54;;;;;;;17.10;7.90;;;;;;;23.20;44.65;101424.22;16062681;19;131481;-55
2022/06/26 17:56:16;;;;;;;20.63;5.97;;;;;;;23.23;44.80;101425.66;16046283;19;131537;-55
2022/06/26 18:01:38;;;;;;;15.98;6.38;;;;;;;23.25;44.97;101428.16;16129910;19;129887;-54
2022/06/26 18:07:03;;;;;;;13.43;5.88;;;;;;;23.26;44.93;101430.72;16127572;19;129368;-51
2022/06/26 18:12:26;;;;;;;14.83;5.57;;;;;;;23.28;44.96;101441.59;16139669;19;129071;-50
2022/06/26 18:17:50;;;;;;;11.20;4.65;;;;;;;23.28;44.99;101453.59;16133797;19;129442;-52
2022/06/26 18:23:11;;;;;;;15.27;4.80;;;;;;;23.29;44.91;101435.75;16083637;19;133027;-58
2022/06/26 18:28:34;;;;;;;12.02;4.30;;;;;;;23.29;45.37;101432.13;16129257;19;131655;-49
2022/06/26 18:33:56;;;;;;;6.95;3.55;;;;;;;23.28;45.24;101427.66;16123662;19;130072;-50
2022/06/26 18:39:19;;;;;;;8.10;3.15;;;;;;;23.28;45.34;101439.63;16095801;19;135505;-50
2022/06/26 18:44:41;;;;;;;9.57;3.30;;;;;;;23.30;45.30;101445.81;16148423;19;130889;-55
2022/06/26 18:50:05;;;;;;;4.78;2.70;;;;;;;23.30;45.40;101436.59;16143172;19;129795;-49
2022/06/26 18:55:28;;;;;;;8.00;3.15;;;;;;;23.29;45.59;101421.78;16143532;19;129240;-52
2022/06/26 19:00:50;;;;;;;11.85;2.78;;;;;;;23.31;45.13;101427.13;16146598;19;130112;-48
2022/06/26 19:06:18;;;;;;;13.18;3.05;;;;;;;23.30;45.78;101422.63;16141526;19;129239;-52
2022/06/26 19:17:41;;;;;;;6.60;2.10;;;;;;;23.27;45.41;101432.38;16147844;19;128895;-53
2022/06/26 19:23:03;;;;;;;5.57;1.95;;;;;;;23.28;45.56;101430.44;16147962;19;129880;-51
2022/06/26 19:28:24;;;;;;;9.23;2.33;;;;;;;23.28;45.52;101445.22;16148469;19;129572;-54
2022/06/26 19:33:46;;;;;;;8.38;2.30;;;;;;;23.28;45.87;101449.97;16143449;19;129419;-55
2022/06/26 19:39:08;;;;;;;8.18;1.83;;;;;;;23.26;45.59;101441.03;16143833;19;129675;-54
2022/06/26 19:44:30;;;;;;;9.35;2.00;;;;;;;23.25;45.63;101440.19;16142433;19;129388;-57
2022/06/26 19:55:35;;;;;;;9.15;2.00;;;;;;;23.24;45.55;101432.06;16141612;19;129127;-57
2022/06/26 20:00:57;;;;;;;5.50;1.60;;;;;;;23.24;45.72;101429.28;16143601;19;129150;-52
2022/06/26 20:06:19;;;;;;;5.57;1.48;;;;;;;23.21;45.45;101427.88;16139867;19;130327;-53
2022/06/26 20:11:41;;;;;;;5.30;1.65;;;;;;;23.25;45.66;101445.78;16144374;19;129435;-59
2022/06/26 20:17:03;;;;;;;11.30;1.70;;;;;;;23.25;45.60;101422.59;16137097;19;130297;-56
2022/06/26 20:22:25;;;;;;;7.35;1.60;;;;;;;23.23;45.40;101439.63;16142392;19;128951;-56
2022/06/26 20:27:47;;;;;;;6.28;1.45;;;;;;;23.20;45.51;101431.75;16143493;19;129319;-58
2022/06/26 20:33:10;;;;;;;5.10;1.25;;;;;;;23.19;45.43;101430.06;16140792;19;130608;-54
2022/06/26 20:38:32;;;;;;;6.60;1.17;;;;;;;23.16;45.45;101453.78;16138026;19;129600;-58
2022/06/26 20:43:54;;;;;;;8.13;1.30;;;;;;;23.16;45.11;101469.66;16141839;19;128818;-59
2022/06/26 20:49:15;;;;;;;4.15;1.08;;;;;;;23.14;45.16;101477.50;16138862;19;128995;-54
2022/06/26 20:54:37;;;;;;;5.60;1.60;;;;;;;23.11;45.35;101472.44;16138128;19;129244;-57
2022/06/26 20:59:59;;;;;;;1.80;1.08;;;;;;;23.09;45.26;101458.72;16135776;19;129159;-54
2022/06/26 21:05:22;;;;;;;6.07;1.08;;;;;;;23.08;45.58;101470.16;16138401;19;129262;-54
2022/06/26 21:10:45;;;;;;;7.55;1.20;;;;;;;23.04;45.48;101473.47;16141894;19;130764;-58
2022/06/26 21:16:07;;;;;;;6.50;1.13;;;;;;;23.03;45.52;101471.78;16136398;19;129504;-60
2022/06/26 21:21:29;;;;;;;1.70;0.88;;;;;;;23.02;45.75;101472.06;16138917;19;132228;-59
2022/06/26 21:26:51;;;;;;;4.53;0.90;;;;;;;23.00;45.41;101466.75;16135598;19;129186;-58
2022/06/26 21:32:12;;;;;;;3.90;1.20;;;;;;;23.00;45.83;101444.44;16137531;19;129545;-58
2022/06/26 21:37:34;;;;;;;7.35;1.15;;;;;;;22.98;45.87;101418.72;16131953;19;129702;-57
2022/06/26 21:42:56;;;;;;;4.30;0.90;;;;;;;22.97;45.69;101433.78;16138599;19;129324;-57
2022/06/26 21:48:18;;;;;;;7.25;1.15;;;;;;;22.94;45.59;101417.56;16136766;19;129578;-57
2022/06/26 21:53:39;;;;;;;1.83;1.00;;;;;;;22.94;45.48;101417.56;16136498;19;131301;-58
2022/06/26 21:59:01;;;;;;;2.80;1.02;;;;;;;22.92;45.27;101411.41;16136057;19;129079;-57
2022/06/26 22:04:23;;;;;;;4.38;1.00;;;;;;;22.91;45.56;101401.34;16131737;19;129579;-59
2022/06/26 22:09:45;;;;;;;6.03;1.15;;;;;;;22.89;45.47;101393.22;16135785;19;129228;-58
2022/06/26 22:15:08;;;;;;;5.95;1.08;;;;;;;22.89;45.91;101400.75;16160255;19;130261;-59
2022/06/26 22:20:29;;;;;;;2.42;0.73;;;;;;;22.88;45.59;101396.28;16166751;19;129462;-59
2022/06/26 22:31:31;;;;;;;2.78;0.75;;;;;;;22.85;45.92;101396.81;16165405;19;130162;-56
2022/06/26 22:36:54;;;;;;;4.68;0.80;;;;;;;22.84;45.50;101414.66;16161001;19;130279;-58
2022/06/26 22:42:15;;;;;;;1.58;0.50;;;;;;;22.83;45.67;101421.34;16165345;19;129496;-59
2022/06/26 22:47:38;;;;;;;4.72;0.75;;;;;;;22.83;45.55;101426.91;16165305;19;129835;-57
2022/06/26 22:53:00;;;;;;;3.40;0.65;;;;;;;22.82;45.88;101437.25;16164461;19;129460;-57
2022/06/26 22:58:22;;;;;;;0.80;0.50;;;;;;;22.80;45.75;101431.06;16162774;19;128996;-59
2022/06/26 23:03:43;;;;;;;3.25;0.90;;;;;;;22.79;46.03;101432.19;16160929;19;129598;-58
2022/06/26 23:09:06;;;;;;;1.17;0.60;;;;;;;22.78;45.47;101436.06;16163695;19;130862;-55
2022/06/26 23:14:27;;;;;;;1.98;1.15;;;;;;;22.77;45.79;101434.38;16159815;19;128991;-58
2022/06/26 23:19:49;;;;;;;2.08;0.50;;;;;;;22.77;45.72;101431.59;16162526;19;129381;-59
2022/06/26 23:25:11;;;;;;;1.40;0.75;;;;;;;22.76;46.05;101420.72;16152811;19;129604;-58
2022/06/26 23:30:33;;;;;;;1.38;0.40;;;;;;;22.77;45.66;101433.56;16146142;19;128985;-57
2022/06/26 23:35:55;;;;;;;2.15;0.60;;;;;;;22.76;45.70;101432.69;16143865;19;129425;-53
2022/06/26 23:41:17;;;;;;;0.47;0.40;;;;;;;22.74;45.69;101424.59;16144860;19;129173;-58
2022/06/26 23:46:39;;;;;;;0.55;0.40;;;;;;;22.74;45.52;101427.38;16144786;19;130270;-59
2022/06/26 23:52:01;;;;;;;1.05;0.32;;;;;;;22.72;45.52;101443.53;16148522;19;129338;-57
2022/06/26 23:57:22;;;;;;;1.98;0.50;;;;;;;22.73;45.99;101466.69;16138864;19;130409;-58
